Time;durP1;ratioP1;P1;durP2;ratioP2;P2;SDS_P1;SDS_P2;PMS_P1;PMS_P2;Temp;Humidity;BMP_temperature;BMP_pressure;BME280_temperature;BME280_humidity;BME280_pressure;Samples;Min_cycle;Max_cycle;Signal;HPM_P1;HPM_P2
2022/05/20 00:01:35;;;;;;;35.73;32.10;;;16.60;99.90;;;;;;5078919;28;20496;-64
2022/05/20 00:04:05;;;;;;;36.27;32.87;;;16.50;1.00;;;;;;5079805;28;20488;-64
2022/05/20 00:06:32;;;;;;;36.00;32.40;;;16.40;1.00;;;;;;5080233;28;20461;-64
2022/05/20 00:08:59;;;;;;;35.20;31.80;;;16.40;1.00;;;;;;5079840;28;20499;-64
2022/05/20 00:11:27;;;;;;;36.17;32.60;;;16.40;1.00;;;;;;5079830;28;20924;-64
2022/05/20 00:13:55;;;;;;;35.47;31.77;;;16.50;1.00;;;;;;5079785;28;20489;-63
2022/05/20 00:16:22;;;;;;;37.13;33.77;;;16.60;99.90;;;;;;5079925;28;20819;-64
2022/05/20 00:18:48;;;;;;;37.80;33.93;;;16.70;99.90;;;;;;5077988;28;20764;-63
2022/05/20 00:21:15;;;;;;;39.47;35.60;;;16.80;99.90;;;;;;5079505;28;20871;-64
2022/05/20 00:23:42;;;;;;;39.03;34.97;;;16.70;1.00;;;;;;5079576;28;20493;-64
2022/05/20 00:26:12;;;;;;;36.97;33.27;;;16.60;99.90;;;;;;5079772;28;20802;-64
2022/05/20 00:28:46;;;;;;;37.23;33.60;;;16.60;99.90;;;;;;5079403;28;20828;-64
2022/05/20 00:31:13;;;;;;;38.50;34.80;;;16.60;99.90;;;;;;5079822;28;20892;-64
2022/05/20 00:33:40;;;;;;;37.17;33.67;;;16.60;99.90;;;;;;5079212;28;20814;-64
2022/05/20 00:36:08;;;;;;;41.80;36.80;;;16.50;1.00;;;;;;5079420;28;20500;-64
2022/05/20 00:38:36;;;;;;;40.53;36.40;;;16.50;1.00;;;;;;5078936;28;20435;-64
2022/05/20 00:41:05;;;;;;;42.87;38.27;;;16.60;99.90;;;;;;5079349;28;20489;-64
2022/05/20 00:43:41;;;;;;;42.50;38.10;;;16.50;1.00;;;;;;5078835;28;20967;-64
2022/05/20 00:46:10;;;;;;;40.53;36.33;;;16.50;1.00;;;;;;5079391;28;20481;-64
2022/05/20 00:48:38;;;;;;;41.27;37.30;;;16.50;99.90;;;;;;5078847;28;20485;-64
2022/05/20 00:51:10;;;;;;;45.33;40.47;;;16.60;99.90;;;;;;5079203;28;20500;-64
2022/05/20 00:53:42;;;;;;;41.27;37.23;;;16.60;99.90;;;;;;5078838;28;20541;-64
2022/05/20 00:56:17;;;;;;;44.67;40.27;;;16.50;1.00;;;;;;5079018;28;20798;-64
2022/05/20 00:58:46;;;;;;;44.80;40.13;;;16.40;1.00;;;;;;5078815;28;20471;-64
2022/05/20 01:01:16;;;;;;;41.87;37.67;;;16.40;1.00;;;;;;5078433;28;20805;-64
2022/05/20 01:03:47;;;;;;;41.70;37.20;;;16.40;99.90;;;;;;5078731;28;20493;-64
2022/05/20 01:06:15;;;;;;;44.37;39.97;;;16.40;75.00;;;;;;5079311;28;20504;-64
2022/05/20 01:08:42;;;;;;;45.40;40.70;;;16.30;99.90;;;;;;5078542;28;20503;-64
2022/05/20 01:11:09;;;;;;;45.10;40.40;;;16.30;99.90;;;;;;5078296;28;20500;-64
2022/05/20 01:13:37;;;;;;;47.23;38.73;;;16.30;40.70;;;;;;5078769;28;20814;-64
2022/05/20 01:16:11;;;;;;;44.40;39.97;;;16.30;1.00;;;;;;5078298;28;20769;-64
2022/05/20 01:18:41;;;;;;;47.17;42.07;;;16.20;99.90;;;;;;5078900;28;20485;-64
2022/05/20 01:21:08;;;;;;;44.27;39.73;;;16.20;1.00;;;;;;5077440;28;20568;-64
2022/05/20 01:23:36;;;;;;;45.90;40.97;;;16.20;99.90;;;;;;5078447;28;20500;-64
2022/05/20 01:26:05;;;;;;;46.13;41.43;;;16.20;99.90;;;;;;5078065;28;20564;-64
2022/05/20 01:28:36;;;;;;;43.80;39.50;;;16.10;99.90;;;;;;5078414;28;20500;-64
2022/05/20 01:31:09;;;;;;;43.57;39.17;;;16.10;99.90;;;;;;5077860;28;20540;-64
2022/05/20 01:33:38;;;;;;;48.80;43.90;;;16.10;99.90;;;;;;5078381;28;20556;-64
2022/05/20 01:36:10;;;;;;;45.20;40.60;;;16.10;99.90;;;;;;5078281;28;20886;-64
2022/05/20 01:38:41;;;;;;;47.97;42.80;;;16.10;99.90;;;;;;5078849;28;20508;-64
2022/05/20 01:41:09;;;;;;;44.73;40.13;;;16.00;99.90;;;;;;5077979;28;20467;-64
2022/05/20 01:43:52;;;;;;;45.40;40.50;;;16.00;99.90;;;;;;5078476;28;20497;-64
2022/05/20 01:46:32;;;;;;;45.33;40.83;;;15.90;1.00;;;;;;5078805;28;20921;-64
2022/05/20 01:49:25;;;;;;;44.77;40.30;;;15.90;99.90;;;;;;5078802;28;20747;-64
2022/05/20 01:52:00;;;;;;;41.80;37.47;;;15.90;1.00;;;;;;5074788;28;20573;-65
2022/05/20 01:54:36;;;;;;;41.87;37.67;;;15.80;1.00;;;;;;5078250;28;20534;-64
2022/05/20 01:57:11;;;;;;;44.43;40.03;;;15.80;1.00;;;;;;5078251;28;20461;-65
2022/05/20 01:59:43;;;;;;;42.97;38.37;;;15.80;1.00;;;;;;5078175;28;20436;-64
2022/05/20 02:02:14;;;;;;;42.13;37.83;;;15.80;1.00;;;;;;5077222;28;20550;-64
2022/05/20 02:04:48;;;;;;;45.07;40.57;;;15.80;1.00;;;;;;5079290;28;20975;-64
2022/05/20 02:07:29;;;;;;;45.33;40.60;;;15.80;99.90;;;;;;5077434;28;20887;-65
2022/05/20 02:10:02;;;;;;;43.40;39.00;;;15.80;99.90;;;;;;5077472;28;20802;-65
2022/05/20 02:12:36;;;;;;;48.47;43.17;;;15.80;94.70;;;;;;5076989;28;20959;-65
2022/05/20 02:15:11;;;;;;;48.37;43.27;;;15.90;99.90;;;;;;5077181;28;20485;-65
2022/05/20 02:17:40;;;;;;;49.87;44.57;;;15.90;19.20;;;;;;5076780;28;20464;-65
2022/05/20 02:20:12;;;;;;;49.20;43.70;;;15.90;99.90;;;;;;5075661;28;20467;-65
2022/05/20 02:22:47;;;;;;;50.53;45.17;;;15.80;99.90;;;;;;5077298;28;20518;-65
2022/05/20 02:25:21;;;;;;;53.73;47.93;;;15.80;1.00;;;;;;5076806;28;20467;-65
2022/05/20 02:27:53;;;;;;;51.93;46.70;;;15.90;1.00;;;;;;5076773;28;20465;-65
2022/05/20 02:30:26;;;;;;;51.43;45.83;;;15.80;99.90;;;;;;5076758;28;20465;-65
2022/05/20 02:32:57;;;;;;;51.83;45.57;;;15.80;99.90;;;;;;5077418;28;20518;-65
2022/05/20 02:35:24;;;;;;;50.40;45.03;;;15.70;1.00;;;;;;5076900;28;20496;-65
2022/05/20 02:37:54;;;;;;;51.87;46.57;;;15.60;13.00;;;;;;5076911;28;20520;-65
2022/05/20 02:40:22;;;;;;;50.70;45.17;;;15.50;1.00;;;;;;5076906;28;20461;-65
2022/05/20 02:42:49;;;;;;;53.93;48.03;;;15.50;1.00;;;;;;5075382;28;20465;-65
2022/05/20 02:45:18;;;;;;;49.70;44.43;;;15.50;44.00;;;;;;5075440;28;20556;-65
2022/05/20 02:47:45;;;;;;;51.07;45.60;;;15.50;99.90;;;;;;5077877;28;20436;-64
2022/05/20 02:50:17;;;;;;;51.70;45.90;;;15.50;99.90;;;;;;5077568;28;20769;-65
2022/05/20 02:52:44;;;;;;;53.07;47.33;;;15.40;99.90;;;;;;5077747;28;20487;-64
2022/05/20 02:55:11;;;;;;;49.67;44.60;;;15.40;99.90;;;;;;5076922;28;20511;-64
2022/05/20 02:57:39;;;;;;;52.53;46.87;;;15.30;99.90;;;;;;5076263;28;20878;-64
2022/05/20 03:05:39;;;;;;;50.70;45.07;;;15.20;99.90;;;;;;5075507;28;20452;-64
2022/05/20 03:08:07;;;;;;;50.20;44.70;;;15.20;99.90;;;;;;5077070;28;20741;-64
2022/05/20 03:10:34;;;;;;;51.03;45.73;;;15.20;99.90;;;;;;5076334;28;20488;-64
2022/05/20 03:13:06;;;;;;;50.33;44.90;;;15.20;99.90;;;;;;5077537;28;20795;-64
2022/05/20 03:15:34;;;;;;;51.33;45.93;;;15.20;99.90;;;;;;5076417;28;20457;-64
2022/05/20 03:18:01;;;;;;;53.13;47.60;;;15.20;99.90;;;;;;5076896;28;20831;-64
2022/05/20 03:20:28;;;;;;;52.27;46.60;;;15.20;99.90;;;;;;5076634;28;20546;-65
2022/05/20 03:22:55;;;;;;;49.70;44.30;;;15.20;99.90;;;;;;5077368;28;20518;-64
2022/05/20 03:25:22;;;;;;;49.30;44.10;;;15.20;99.90;;;;;;5077052;28;20472;-64
2022/05/20 03:27:51;;;;;;;48.30;43.10;;;15.30;99.90;;;;;;5076327;28;20512;-64
2022/05/20 03:30:20;;;;;;;46.90;42.17;;;15.30;99.90;;;;;;5076716;28;20506;-65
2022/05/20 03:32:48;;;;;;;48.07;43.33;;;15.30;99.90;;;;;;5077173;28;20535;-64
2022/05/20 03:35:15;;;;;;;48.60;42.90;;;15.30;99.90;;;;;;5077229;28;20465;-64
2022/05/20 03:37:42;;;;;;;46.60;41.80;;;15.20;99.90;;;;;;5076325;28;20469;-64
2022/05/20 03:40:10;;;;;;;47.60;42.60;;;15.30;99.90;;;;;;5077396;28;20469;-64
2022/05/20 03:42:39;;;;;;;50.70;45.30;;;15.30;99.90;;;;;;5076688;28;20465;-64
2022/05/20 03:45:08;;;;;;;50.00;44.87;;;15.30;99.90;;;;;;5077020;28;20996;-64
2022/05/20 03:47:36;;;;;;;47.60;42.67;;;15.30;99.90;;;;;;5076432;28;20465;-65
2022/05/20 03:50:04;;;;;;;49.53;44.37;;;15.30;99.90;;;;;;5076881;28;20909;-65
2022/05/20 03:52:34;;;;;;;49.67;44.37;;;15.30;99.90;;;;;;5077627;28;20484;-64
2022/05/20 03:55:01;;;;;;;49.23;43.83;;;15.30;99.90;;;;;;5080933;28;20885;-64
2022/05/20 03:57:29;;;;;;;48.40;43.40;;;15.30;99.90;;;;;;5080176;28;20586;-65
2022/05/20 03:59:56;;;;;;;49.60;43.27;;;15.40;99.90;;;;;;5080377;28;20465;-64
2022/05/20 04:02:22;;;;;;;49.40;44.10;;;15.30;99.90;;;;;;5079811;28;20511;-65
2022/05/20 04:04:53;;;;;;;51.13;45.83;;;15.30;99.90;;;;;;5080896;28;20464;-65
2022/05/20 04:07:21;;;;;;;49.73;44.37;;;15.30;99.90;;;;;;5080907;28;20744;-65
2022/05/20 04:09:50;;;;;;;50.13;45.10;;;15.30;99.90;;;;;;5079857;28;20470;-65
2022/05/20 04:12:25;;;;;;;51.40;46.00;;;15.20;99.90;;;;;;5079871;28;20511;-65
2022/05/20 04:14:52;;;;;;;50.17;44.80;;;15.20;99.90;;;;;;5080938;28;20456;-65
2022/05/20 04:17:22;;;;;;;51.17;45.83;;;15.30;99.90;;;;;;5080719;28;20494;-65
2022/05/20 04:19:59;;;;;;;52.83;47.50;;;15.30;99.90;;;;;;5079713;28;20471;-65
2022/05/20 04:22:29;;;;;;;50.63;45.63;;;15.40;99.90;;;;;;5080214;28;20469;-64
2022/05/20 04:24:56;;;;;;;49.57;44.20;;;15.50;99.90;;;;;;5080586;28;20760;-65
2022/05/20 04:27:23;;;;;;;52.63;46.50;;;15.50;99.90;;;;;;5080729;28;20493;-65
2022/05/20 04:29:50;;;;;;;53.67;47.77;;;15.50;99.90;;;;;;5078380;28;20493;-65
2022/05/20 04:32:17;;;;;;;51.10;44.23;;;15.60;99.90;;;;;;5080865;28;20499;-65
2022/05/20 04:34:47;;;;;;;50.97;45.40;;;15.70;99.90;;;;;;5080827;28;20881;-65
2022/05/20 04:37:15;;;;;;;51.97;46.20;;;15.70;99.90;;;;;;5080807;28;20519;-64
2022/05/20 04:39:45;;;;;;;51.37;46.03;;;15.70;99.90;;;;;;5079594;28;20440;-65
2022/05/20 04:47:42;;;;;;;51.27;45.90;;;15.80;99.90;;;;;;5076736;28;20431;-65
2022/05/20 04:50:10;;;;;;;51.43;46.17;;;15.80;99.90;;;;;;5075819;28;20562;-65
2022/05/20 04:52:38;;;;;;;49.00;43.77;;;15.80;99.90;;;;;;5076605;28;20465;-65
2022/05/20 04:55:07;;;;;;;49.37;44.47;;;15.90;99.90;;;;;;5077253;28;20489;-65
2022/05/20 04:57:41;;;;;;;55.27;47.10;;;15.90;99.70;;;;;;5073831;28;20492;-65
2022/05/20 05:00:12;;;;;;;51.77;46.07;;;15.90;20.70;;;;;;5077836;28;20897;-65
2022/05/20 05:02:39;;;;;;;50.20;45.10;;;15.90;1.00;;;;;;5079824;28;20461;-65
2022/05/20 05:05:09;;;;;;;50.97;45.57;;;15.90;1.00;;;;;;5078784;28;20452;-65
2022/05/20 05:07:40;;;;;;;52.77;44.17;;;15.90;99.90;;;;;;5065124;28;20914;-65
2022/05/20 05:10:09;;;;;;;52.83;46.27;;;15.80;99.90;;;;;;5057893;28;20462;-65
2022/05/20 05:12:37;;;;;;;52.07;46.77;;;15.90;99.90;;;;;;5078069;28;20461;-65
2022/05/20 05:15:06;;;;;;;53.77;46.50;;;15.90;99.90;;;;;;5079357;28;20884;-65
2022/05/20 05:20:21;;;;;;;53.10;45.10;;;16.00;1.00;;;;;;5079692;28;20477;-65
2022/05/20 05:22:51;;;;;;;54.83;48.80;;;16.00;32.90;;;;;;5079157;28;20504;-65
2022/05/20 05:25:19;;;;;;;54.73;48.77;;;16.00;99.90;;;;;;5079588;28;20550;-66
2022/05/20 05:27:51;;;;;;;52.80;47.10;;;16.00;99.90;;;;;;5079553;28;20469;-65
2022/05/20 05:30:18;;;;;;;54.57;47.30;;;16.10;99.90;;;;;;5078440;28;20485;-65
2022/05/20 05:32:45;;;;;;;52.50;46.80;;;16.20;1.00;;;;;;5077916;28;20462;-65
2022/05/20 05:35:15;;;;;;;49.50;43.67;;;16.40;99.90;;;;;;5078528;28;20518;-65
2022/05/20 05:37:45;;;;;;;47.30;42.10;;;16.50;1.00;;;;;;5077500;28;20488;-67
2022/05/20 05:40:20;;;;;;;49.27;43.90;;;16.60;1.00;;;;;;5075654;28;20494;-67
2022/05/20 05:42:48;;;;;;;49.80;44.50;;;16.90;59.40;;;;;;5074695;28;20557;-67
2022/05/20 05:45:21;;;;;;;47.30;42.53;;;16.90;99.90;;;;;;5074377;28;20490;-67
2022/05/20 05:47:52;;;;;;;48.93;43.80;;;17.10;1.00;;;;;;5075734;28;20492;-68
2022/05/20 05:50:20;;;;;;;51.17;45.33;;;17.20;1.00;;;;;;5075265;28;20462;-67
2022/05/20 05:52:47;;;;;;;49.30;41.50;;;17.30;99.90;;;;;;5075320;28;20465;-67
2022/05/20 05:55:15;;;;;;;47.60;42.30;;;17.30;99.90;;;;;;5077848;28;20496;-67
2022/05/20 05:57:45;;;;;;;45.83;41.00;;;17.40;99.90;;;;;;5076855;28;20443;-68
2022/05/20 06:00:13;;;;;;;46.83;41.80;;;17.50;99.90;;;;;;5077028;28;20516;-67
2022/05/20 06:02:40;;;;;;;45.87;41.30;;;17.60;99.90;;;;;;5074874;28;20469;-68
2022/05/20 06:05:08;;;;;;;48.90;43.37;;;17.60;99.90;;;;;;5076563;28;20995;-67
2022/05/20 06:07:35;;;;;;;47.80;42.87;;;17.70;99.90;;;;;;5076540;28;20562;-68
2022/05/20 06:10:02;;;;;;;45.07;40.47;;;17.90;99.90;;;;;;5076249;28;20586;-67
2022/05/20 06:12:31;;;;;;;48.13;43.13;;;18.10;99.90;;;;;;5076012;28;20465;-67
2022/05/20 06:14:58;;;;;;;45.93;39.60;;;18.40;99.90;;;;;;5076346;28;20473;-67
2022/05/20 06:20:10;;;;;;;47.07;42.37;;;18.80;1.00;;;;;;5076660;28;20761;-68
2022/05/20 06:22:37;;;;;;;47.40;42.70;;;18.90;1.00;;;;;;5077071;28;20966;-67
2022/05/20 06:25:12;;;;;;;49.20;43.80;;;19.10;1.00;;;;;;5057372;28;20490;-68
2022/05/20 06:27:42;;;;;;;45.57;40.97;;;19.40;1.00;;;;;;5063488;28;20473;-67
2022/05/20 06:30:14;;;;;;;46.93;42.13;;;19.60;1.00;;;;;;5076855;28;20492;-68
2022/05/20 06:32:42;;;;;;;47.63;42.60;;;19.70;1.00;;;;;;5077424;28;20461;-67
2022/05/20 06:40:44;;;;;;;45.40;38.73;;;20.50;1.00;;;;;;5076734;28;20561;-68
2022/05/20 06:43:13;;;;;;;40.93;36.83;;;20.80;1.00;;;;;;5077150;28;21007;-68
2022/05/20 06:45:40;;;;;;;43.80;39.30;;;20.90;1.00;;;;;;5075884;28;20489;-68
2022/05/20 06:48:13;;;;;;;41.23;37.03;;;21.00;1.00;;;;;;5077031;28;20893;-68
2022/05/20 06:50:42;;;;;;;44.87;40.27;;;21.30;1.00;;;;;;5076738;28;20461;-67
2022/05/20 06:53:12;;;;;;;41.87;37.53;;;21.40;1.00;;;;;;5076167;28;20465;-67
2022/05/20 06:55:41;;;;;;;43.30;39.10;;;21.50;1.00;;;;;;5075275;28;20932;-67
2022/05/20 06:58:09;;;;;;;43.33;39.07;;;21.50;1.00;;;;;;5076011;28;20547;-68
2022/05/20 07:00:37;;;;;;;40.77;36.57;;;21.60;1.00;;;;;;5076804;28;20515;-66
2022/05/20 07:03:05;;;;;;;40.00;36.00;;;21.60;1.00;;;;;;5076746;28;20953;-66
2022/05/20 07:05:34;;;;;;;39.37;35.47;;;21.80;1.00;;;;;;5075488;28;20791;-66
2022/05/20 07:08:01;;;;;;;40.33;36.00;;;22.00;1.00;;;;;;5073831;28;20466;-67
2022/05/20 07:10:28;;;;;;;40.57;36.47;;;22.30;1.00;;;;;;5074083;28;20465;-66
